Time;durP1;ratioP1;P1;durP2;ratioP2;P2;SDS_P1;SDS_P2;PMS_P1;PMS_P2;Temp;Humidity;BMP_temperature;BMP_pressure;BME280_temperature;BME280_humidity;BME280_pressure;Samples;Min_cycle;Max_cycle;Signal;HPM_P1;HPM_P2
2022/11/19 00:01:22;;;;;;;13.20;6.20;;;8.50;84.00;;;;;;5035130;28;20032;-73
2022/11/19 00:03:49;;;;;;;14.23;6.55;;;8.50;83.70;;;;;;5035008;28;20049;-73
2022/11/19 00:06:20;;;;;;;12.50;6.82;;;8.50;83.00;;;;;;5052513;28;20024;-73
2022/11/19 00:08:46;;;;;;;12.50;6.47;;;8.40;82.80;;;;;;5034941;28;20037;-73
2022/11/19 00:11:14;;;;;;;17.75;6.95;;;8.40;83.20;;;;;;5054748;28;20029;-73
2022/11/19 00:13:41;;;;;;;15.60;7.45;;;8.40;82.80;;;;;;5056013;28;20037;-73
2022/11/19 00:16:11;;;;;;;17.85;7.15;;;8.30;82.90;;;;;;5055990;28;20029;-73
2022/11/19 00:18:37;;;;;;;16.13;6.60;;;8.30;83.30;;;;;;5055955;28;20052;-73
2022/11/19 00:21:08;;;;;;;16.08;6.85;;;8.30;82.80;;;;;;5056018;28;20017;-73
2022/11/19 00:23:35;;;;;;;19.08;7.53;;;8.20;83.80;;;;;;5055783;28;20027;-73
2022/11/19 00:26:12;;;;;;;14.18;6.95;;;8.20;83.20;;;;;;5022183;28;20030;-73
2022/11/19 00:28:38;;;;;;;13.88;6.60;;;8.20;83.20;;;;;;5055742;28;20037;-73
2022/11/19 00:31:14;;;;;;;12.90;6.78;;;8.20;83.20;;;;;;5038339;28;20072;-73
2022/11/19 00:33:42;;;;;;;14.13;6.45;;;8.20;83.30;;;;;;5038223;28;20053;-73
2022/11/19 00:36:10;;;;;;;11.95;6.32;;;8.20;83.40;;;;;;5055622;28;20030;-73
2022/11/19 00:38:36;;;;;;;17.70;6.85;;;8.20;83.00;;;;;;5055566;28;20052;-73
2022/11/19 00:41:02;;;;;;;12.25;6.35;;;8.20;83.00;;;;;;5055508;28;20064;-73
2022/11/19 00:43:45;;;;;;;13.25;6.25;;;8.10;82.70;;;;;;5037989;28;20026;-73
2022/11/19 00:46:15;;;;;;;11.65;5.40;;;8.20;83.20;;;;;;5055451;28;20030;-73
2022/11/19 00:48:40;;;;;;;10.48;5.25;;;8.20;83.10;;;;;;5037617;28;20091;-73
2022/11/19 00:51:08;;;;;;;12.75;5.75;;;8.10;82.70;;;;;;5037979;28;20025;-73
2022/11/19 00:53:34;;;;;;;16.13;6.32;;;8.10;82.70;;;;;;5055447;28;20041;-73
2022/11/19 00:56:01;;;;;;;14.52;6.82;;;8.10;82.70;;;;;;5055236;28;20037;-73
2022/11/19 00:58:27;;;;;;;15.98;5.68;;;8.00;81.90;;;;;;5055251;28;20110;-73
2022/11/19 01:00:53;;;;;;;14.35;6.68;;;7.90;82.30;;;;;;5037847;28;20029;-73
2022/11/19 01:03:18;;;;;;;12.15;5.50;;;7.90;82.60;;;;;;5055044;28;20029;-73
2022/11/19 01:05:44;;;;;;;9.63;4.95;;;8.00;82.50;;;;;;5055060;28;20048;-73
2022/11/19 01:08:10;;;;;;;13.32;6.30;;;8.00;82.60;;;;;;5054956;28;20029;-73
2022/11/19 01:10:36;;;;;;;10.80;5.95;;;7.90;82.40;;;;;;5054981;28;20029;-73
2022/11/19 01:15:50;;;;;;;10.60;5.70;;;7.90;82.60;;;;;;5055163;28;20120;-73
2022/11/19 01:18:17;;;;;;;13.50;5.75;;;7.90;82.50;;;;;;5054822;28;20040;-73
2022/11/19 01:20:43;;;;;;;10.20;5.88;;;7.80;82.80;;;;;;5054743;28;20025;-73
2022/11/19 01:23:09;;;;;;;12.18;5.90;;;7.80;82.20;;;;;;5053550;28;20037;-73
2022/11/19 01:25:35;;;;;;;11.57;5.63;;;7.70;81.80;;;;;;5054682;28;20029;-73
2022/11/19 01:28:01;;;;;;;14.43;6.95;;;7.70;82.10;;;;;;5054664;28;20026;-73
2022/11/19 01:30:27;;;;;;;13.57;6.70;;;7.70;82.50;;;;;;5053574;28;20022;-74
2022/11/19 01:32:52;;;;;;;12.63;6.20;;;7.70;82.10;;;;;;5054547;28;20080;-73
2022/11/19 01:35:18;;;;;;;13.63;6.75;;;7.70;82.30;;;;;;5036984;28;20034;-73
2022/11/19 01:37:44;;;;;;;11.45;6.18;;;7.70;82.40;;;;;;5037087;28;20037;-73
2022/11/19 01:40:10;;;;;;;13.65;6.45;;;7.60;82.10;;;;;;5054551;28;20029;-73
2022/11/19 01:42:52;;;;;;;13.63;5.82;;;7.60;82.60;;;;;;5036770;28;20029;-74
2022/11/19 01:45:47;;;;;;;11.77;6.45;;;7.60;82.40;;;;;;5039510;28;20030;-73
2022/11/19 01:48:17;;;;;;;13.82;6.18;;;7.50;81.80;;;;;;5054244;28;20013;-74
2022/11/19 01:50:56;;;;;;;11.93;6.05;;;7.50;82.20;;;;;;5054186;28;20025;-73
2022/11/19 01:53:24;;;;;;;11.63;5.63;;;7.40;82.10;;;;;;5054184;28;20111;-73
2022/11/19 01:55:51;;;;;;;16.83;6.07;;;7.40;81.00;;;;;;5054103;28;20090;-73
2022/11/19 01:58:22;;;;;;;13.73;6.55;;;7.30;81.30;;;;;;5054074;28;20036;-73
2022/11/19 02:00:47;;;;;;;12.30;5.90;;;7.20;81.90;;;;;;5054088;28;20041;-74
2022/11/19 02:03:15;;;;;;;11.77;5.90;;;7.20;81.70;;;;;;5053901;28;20033;-73
2022/11/19 02:05:41;;;;;;;12.80;6.25;;;7.20;82.00;;;;;;5053940;28;20017;-73
2022/11/19 02:08:28;;;;;;;11.93;5.85;;;7.10;81.80;;;;;;5053854;28;20018;-73
2022/11/19 02:11:20;;;;;;;11.70;6.25;;;7.10;81.60;;;;;;5053667;28;20022;-73
2022/11/19 02:13:54;;;;;;;12.20;6.25;;;7.00;81.80;;;;;;5053858;28;20029;-73
2022/11/19 02:16:45;;;;;;;14.85;6.65;;;7.00;81.90;;;;;;5053908;28;20026;-73
2022/11/19 02:19:43;;;;;;;12.68;6.30;;;7.00;82.00;;;;;;5053867;28;20026;-73
2022/11/19 02:22:30;;;;;;;15.43;6.60;;;7.00;81.70;;;;;;5053614;28;20113;-73
2022/11/19 02:25:27;;;;;;;14.70;6.78;;;6.90;81.30;;;;;;5053653;28;20029;-73
2022/11/19 02:28:34;;;;;;;14.10;6.47;;;6.90;81.50;;;;;;5053545;28;20032;-73
2022/11/19 02:31:07;;;;;;;13.38;6.38;;;6.90;82.00;;;;;;5053076;28;20106;-73
2022/11/19 02:33:52;;;;;;;13.75;6.68;;;6.90;81.80;;;;;;5053156;28;20029;-73
2022/11/19 02:36:36;;;;;;;13.35;6.72;;;6.90;81.50;;;;;;5053504;28;20077;-73
2022/11/19 02:39:17;;;;;;;13.10;6.40;;;6.90;81.80;;;;;;5053434;28;20027;-73
2022/11/19 02:42:03;;;;;;;18.15;7.75;;;6.80;82.30;;;;;;5053541;28;20048;-73
2022/11/19 02:47:24;;;;;;;14.98;6.88;;;6.80;81.60;;;;;;5053486;28;20089;-74
2022/11/19 02:49:54;;;;;;;17.30;7.45;;;6.90;81.60;;;;;;5053034;28;20048;-73
2022/11/19 02:52:20;;;;;;;15.52;7.25;;;6.90;81.00;;;;;;5053383;28;20018;-73
2022/11/19 02:54:46;;;;;;;16.77;7.80;;;6.80;81.10;;;;;;5053220;28;20056;-74
2022/11/19 02:57:12;;;;;;;17.15;7.93;;;6.80;80.70;;;;;;5053176;28;20477;-73
2022/11/19 03:05:56;;;;;;;19.42;7.63;;;6.70;80.90;;;;;;5053197;28;20041;-73
2022/11/19 03:08:22;;;;;;;16.33;7.72;;;6.70;81.10;;;;;;5053029;28;20032;-73
2022/11/19 03:11:01;;;;;;;16.23;7.78;;;6.70;81.20;;;;;;5035708;28;20026;-74
2022/11/19 03:16:43;;;;;;;20.52;7.70;;;6.60;80.80;;;;;;5053079;28;20039;-73
2022/11/19 03:19:34;;;;;;;19.60;8.43;;;6.60;80.60;;;;;;5053152;28;20093;-74
2022/11/19 03:22:29;;;;;;;21.08;8.02;;;6.50;80.50;;;;;;5024248;28;20037;-73
2022/11/19 03:25:21;;;;;;;15.57;7.53;;;6.50;81.20;;;;;;5048066;28;20033;-74
2022/11/19 03:27:51;;;;;;;17.17;7.38;;;6.50;81.00;;;;;;5052941;28;20049;-73
2022/11/19 03:30:18;;;;;;;19.75;8.18;;;6.60;80.70;;;;;;5035436;28;20082;-73
2022/11/19 03:33:04;;;;;;;19.65;8.15;;;6.50;80.80;;;;;;5052880;28;20041;-73
2022/11/19 03:35:39;;;;;;;17.35;7.90;;;6.50;81.20;;;;;;5035378;28;20025;-73
2022/11/19 03:38:10;;;;;;;17.77;7.82;;;6.50;81.20;;;;;;5052830;28;20036;-73
2022/11/19 03:40:36;;;;;;;19.13;8.35;;;6.50;80.70;;;;;;5051835;28;20085;-73
2022/11/19 03:43:06;;;;;;;17.23;8.15;;;6.60;80.90;;;;;;5052706;28;20052;-73
2022/11/19 03:45:38;;;;;;;16.13;7.95;;;6.60;81.20;;;;;;5054099;28;20025;-73
2022/11/19 03:48:04;;;;;;;17.52;8.40;;;6.60;81.30;;;;;;5056733;28;20068;-74
2022/11/19 03:50:41;;;;;;;18.02;8.15;;;6.70;81.10;;;;;;5039015;28;20046;-73
2022/11/19 03:53:07;;;;;;;20.48;8.82;;;6.70;80.20;;;;;;5056513;28;20432;-73
2022/11/19 03:55:38;;;;;;;19.95;9.18;;;6.60;80.20;;;;;;5056392;28;20029;-73
2022/11/19 03:58:06;;;;;;;19.00;8.90;;;6.60;81.00;;;;;;5056438;28;20025;-73
2022/11/19 04:00:32;;;;;;;21.00;8.65;;;6.60;80.10;;;;;;5056296;28;20057;-73
2022/11/19 04:02:58;;;;;;;19.17;9.45;;;6.60;80.40;;;;;;5056196;28;20544;-73
2022/11/19 04:05:24;;;;;;;20.70;9.15;;;6.60;80.20;;;;;;5022554;28;20032;-73
2022/11/19 04:07:49;;;;;;;20.90;9.00;;;6.60;79.90;;;;;;5038696;28;20029;-73
2022/11/19 04:10:15;;;;;;;21.33;9.13;;;6.60;79.60;;;;;;5056287;28;20026;-73
2022/11/19 04:12:40;;;;;;;20.25;8.95;;;6.50;79.60;;;;;;5038700;28;20037;-73
2022/11/19 04:15:10;;;;;;;19.77;8.93;;;6.50;79.90;;;;;;5056036;28;20025;-73
2022/11/19 04:17:35;;;;;;;21.35;9.77;;;6.50;79.40;;;;;;5056003;28;20044;-73
2022/11/19 04:20:01;;;;;;;21.27;9.40;;;6.50;79.30;;;;;;5055939;28;20040;-74
2022/11/19 04:22:27;;;;;;;21.08;9.52;;;6.50;79.30;;;;;;5055839;28;20029;-73
2022/11/19 04:24:52;;;;;;;19.35;9.25;;;6.40;79.20;;;;;;5055865;28;20029;-73
2022/11/19 04:27:18;;;;;;;20.38;9.23;;;6.40;79.40;;;;;;5055823;28;20034;-73
2022/11/19 04:29:43;;;;;;;22.30;9.18;;;6.40;78.90;;;;;;5055758;28;20049;-74
2022/11/19 04:32:09;;;;;;;23.10;9.80;;;6.40;78.90;;;;;;5038225;28;20025;-73
2022/11/19 04:34:34;;;;;;;21.60;9.95;;;6.30;79.40;;;;;;5055687;28;20029;-73
2022/11/19 04:37:00;;;;;;;22.27;10.38;;;6.30;79.70;;;;;;5038202;28;20041;-74
2022/11/19 04:39:26;;;;;;;21.67;9.77;;;6.40;79.40;;;;;;5055600;28;20037;-74
2022/11/19 04:41:51;;;;;;;18.38;8.98;;;6.30;78.20;;;;;;5055533;28;20029;-74
2022/11/19 04:44:17;;;;;;;20.35;9.65;;;6.20;78.70;;;;;;5055425;28;20061;-73
2022/11/19 04:46:43;;;;;;;21.73;10.35;;;6.20;79.90;;;;;;5055435;28;20065;-74
2022/11/19 04:49:08;;;;;;;24.25;10.20;;;6.20;79.10;;;;;;5037815;28;20057;-73
2022/11/19 04:51:34;;;;;;;21.48;9.23;;;6.20;79.30;;;;;;5054455;28;20033;-73
2022/11/19 04:53:59;;;;;;;21.02;9.65;;;6.20;79.00;;;;;;5055320;28;20041;-73
2022/11/19 04:56:25;;;;;;;23.50;9.88;;;6.20;79.30;;;;;;5037671;28;20022;-73
2022/11/19 04:58:51;;;;;;;20.92;8.95;;;6.20;79.20;;;;;;5037695;28;20464;-74
2022/11/19 05:01:19;;;;;;;22.42;10.63;;;6.10;79.30;;;;;;5055177;28;20033;-73
2022/11/19 05:03:45;;;;;;;26.10;11.48;;;6.10;79.30;;;;;;5055224;28;20026;-73
2022/11/19 05:06:11;;;;;;;24.30;11.25;;;6.10;79.10;;;;;;5055084;28;20085;-73
2022/11/19 05:08:36;;;;;;;22.92;10.68;;;6.10;79.20;;;;;;5037584;28;20036;-73
2022/11/19 05:11:02;;;;;;;26.35;11.18;;;6.10;78.80;;;;;;5037644;28;20044;-74
2022/11/19 05:13:27;;;;;;;24.67;10.65;;;6.10;79.00;;;;;;5054957;28;20076;-73
2022/11/19 05:15:53;;;;;;;24.88;10.20;;;6.10;78.90;;;;;;5037355;28;20029;-73
2022/11/19 05:18:19;;;;;;;22.55;10.65;;;6.00;78.80;;;;;;5037432;28;20489;-74
2022/11/19 05:20:44;;;;;;;22.08;10.20;;;6.00;78.40;;;;;;5054796;28;20029;-73
2022/11/19 05:23:10;;;;;;;22.27;10.30;;;6.00;78.80;;;;;;5037280;28;20034;-74
2022/11/19 05:25:35;;;;;;;26.10;10.85;;;5.90;77.90;;;;;;5037323;28;20109;-73
2022/11/19 05:28:01;;;;;;;28.67;11.43;;;5.90;78.50;;;;;;5054698;28;20022;-74
2022/11/19 05:30:27;;;;;;;24.83;10.48;;;5.90;79.10;;;;;;5054659;28;20033;-73
2022/11/19 05:32:52;;;;;;;23.20;10.25;;;5.80;79.20;;;;;;5054575;28;20064;-74
2022/11/19 05:35:18;;;;;;;23.05;9.98;;;5.80;79.20;;;;;;5054550;28;20037;-73
2022/11/19 05:37:47;;;;;;;26.05;11.00;;;5.80;79.10;;;;;;5054477;28;20034;-73
2022/11/19 05:40:13;;;;;;;26.50;11.27;;;5.70;79.50;;;;;;5054445;28;20117;-73
2022/11/19 05:42:39;;;;;;;28.55;11.25;;;5.80;79.80;;;;;;5054336;28;20029;-73
2022/11/19 05:45:05;;;;;;;24.63;10.45;;;5.80;79.30;;;;;;5036993;28;20033;-73
2022/11/19 05:47:31;;;;;;;26.75;11.02;;;5.70;78.70;;;;;;5053364;28;20033;-73
2022/11/19 05:49:56;;;;;;;26.02;11.18;;;5.70;78.80;;;;;;5036669;28;20109;-73
2022/11/19 05:52:22;;;;;;;29.55;11.45;;;5.60;79.20;;;;;;5036813;28;20033;-74
2022/11/19 05:54:47;;;;;;;27.27;11.15;;;5.60;79.10;;;;;;5054189;28;20033;-74
2022/11/19 05:57:13;;;;;;;22.70;10.32;;;5.70;78.90;;;;;;5036746;28;20029;-74
2022/11/19 05:59:38;;;;;;;26.45;10.93;;;5.60;78.80;;;;;;5054062;28;20045;-73
2022/11/19 06:02:04;;;;;;;26.98;11.73;;;5.60;78.40;;;;;;5053969;28;20044;-74
2022/11/19 06:04:30;;;;;;;26.77;10.82;;;5.60;78.80;;;;;;5036510;28;20033;-73
2022/11/19 06:06:55;;;;;;;23.70;10.65;;;5.60;79.00;;;;;;5053923;28;20017;-73
2022/11/19 06:09:21;;;;;;;29.10;11.38;;;5.60;78.70;;;;;;5035832;28;20030;-73
2022/11/19 06:11:47;;;;;;;28.48;11.63;;;5.50;78.70;;;;;;5036496;28;20026;-73
2022/11/19 06:14:13;;;;;;;25.77;10.63;;;5.50;78.30;;;;;;5053824;28;20029;-74
2022/11/19 06:16:39;;;;;;;28.50;11.18;;;5.60;78.50;;;;;;5053782;28;20037;-74
2022/11/19 06:19:05;;;;;;;26.17;11.57;;;5.50;78.50;;;;;;5053879;28;20483;-74
2022/11/19 06:21:30;;;;;;;24.10;10.60;;;5.50;78.80;;;;;;5053698;28;20045;-74
2022/11/19 06:23:56;;;;;;;26.90;11.43;;;5.50;78.30;;;;;;5053571;28;20033;-74
2022/11/19 06:26:24;;;;;;;27.15;11.30;;;5.50;78.50;;;;;;5053760;28;20029;-73
2022/11/19 06:28:50;;;;;;;27.50;10.85;;;5.50;78.70;;;;;;5036511;28;20057;-74
2022/11/19 06:31:15;;;;;;;28.20;11.68;;;5.50;78.90;;;;;;5052568;28;20029;-74
2022/11/19 06:33:41;;;;;;;28.52;11.65;;;5.60;78.90;;;;;;5036127;28;20041;-73
2022/11/19 06:36:07;;;;;;;28.20;11.57;;;5.60;78.50;;;;;;5036072;28;20029;-74
2022/11/19 06:38:33;;;;;;;26.55;11.07;;;5.60;78.10;;;;;;5053420;28;20033;-74
2022/11/19 06:40:58;;;;;;;25.98;10.77;;;5.60;78.30;;;;;;5053553;28;20040;-73
2022/11/19 06:43:24;;;;;;;26.38;10.90;;;5.60;78.20;;;;;;5052249;28;20041;-73
2022/11/19 06:45:50;;;;;;;29.92;12.45;;;5.60;77.90;;;;;;5053345;28;20077;-74
2022/11/19 06:48:15;;;;;;;24.65;10.65;;;5.60;78.20;;;;;;5035808;28;20089;-74
2022/11/19 06:50:43;;;;;;;26.58;11.50;;;5.60;78.40;;;;;;5053113;28;20049;-74
2022/11/19 06:53:08;;;;;;;30.90;10.98;;;5.60;77.60;;;;;;5053255;28;20034;-74
2022/11/19 06:55:34;;;;;;;28.08;11.02;;;5.60;78.00;;;;;;5053247;28;20025;-73
2022/11/19 06:58:03;;;;;;;26.50;11.02;;;5.60;78.20;;;;;;5053299;28;20488;-73
2022/11/19 07:00:29;;;;;;;25.63;11.38;;;5.60;78.10;;;;;;5053155;28;20040;-73
2022/11/19 07:02:55;;;;;;;28.33;12.05;;;5.50;78.20;;;;;;5053058;28;20021;-73
2022/11/19 07:05:21;;;;;;;27.45;12.48;;;5.50;78.40;;;;;;5053110;28;20032;-74
2022/11/19 07:07:46;;;;;;;28.05;11.45;;;5.60;77.30;;;;;;5052007;28;20052;-73
2022/11/19 07:10:12;;;;;;;28.73;12.18;;;5.50;77.70;;;;;;5052074;28;20033;-73
2022/11/19 07:12:38;;;;;;;27.67;11.75;;;5.50;78.00;;;;;;5053059;28;20029;-74
2022/11/19 07:15:04;;;;;;;26.65;11.07;;;5.50;77.90;;;;;;5053037;28;20033;-73
2022/11/19 07:17:30;;;;;;;30.27;12.00;;;5.50;77.40;;;;;;5052964;28;20025;-73
2022/11/19 07:19:55;;;;;;;29.08;11.43;;;5.50;77.40;;;;;;5055113;28;20036;-74
2022/11/19 07:22:21;;;;;;;28.70;11.48;;;5.50;78.00;;;;;;5056968;28;20032;-74
2022/11/19 07:24:47;;;;;;;27.88;11.13;;;5.40;78.20;;;;;;5057023;28;20468;-73
2022/11/19 07:27:14;;;;;;;27.25;11.52;;;5.40;77.90;;;;;;5056936;28;20053;-74
2022/11/19 07:29:39;;;;;;;26.30;11.63;;;5.40;78.00;;;;;;5056921;28;20105;-74
2022/11/19 07:32:05;;;;;;;28.65;10.40;;;5.40;77.80;;;;;;5056851;28;20029;-74
2022/11/19 07:34:30;;;;;;;23.90;11.18;;;5.40;77.90;;;;;;5056848;28;20029;-74
2022/11/19 07:36:56;;;;;;;26.80;10.60;;;5.40;77.70;;;;;;5039434;28;20030;-73
2022/11/19 07:39:22;;;;;;;28.92;11.25;;;5.50;78.20;;;;;;5039365;28;20022;-73
2022/11/19 07:44:32;;;;;;;25.83;10.32;;;5.50;78.10;;;;;;5056731;28;20045;-74
2022/11/19 07:46:58;;;;;;;28.85;10.52;;;5.40;77.90;;;;;;5056585;28;20026;-74
2022/11/19 07:49:26;;;;;;;25.63;10.88;;;5.50;78.90;;;;;;5056389;28;20107;-74
2022/11/19 07:51:52;;;;;;;29.08;12.00;;;5.50;78.90;;;;;;5056491;28;20021;-74
2022/11/19 07:54:18;;;;;;;23.85;9.95;;;5.40;77.70;;;;;;5055469;28;20025;-74
2022/11/19 07:56:44;;;;;;;23.50;10.52;;;5.40;77.70;;;;;;5038896;28;20490;-74
2022/11/19 07:59:10;;;;;;;27.27;11.63;;;5.40;78.00;;;;;;5055418;28;20026;-74
2022/11/19 08:01:36;;;;;;;26.23;11.02;;;5.40;77.80;;;;;;5055326;28;20025;-74
2022/11/19 08:04:03;;;;;;;23.92;10.43;;;5.40;77.90;;;;;;5056214;28;20040;-74
2022/11/19 08:06:29;;;;;;;27.95;11.38;;;5.40;77.60;;;;;;5056214;28;20021;-74
2022/11/19 08:08:55;;;;;;;26.10;11.73;;;5.40;77.90;;;;;;5056122;28;20040;-74
2022/11/19 08:11:21;;;;;;;25.60;10.40;;;5.40;78.20;;;;;;5056139;28;20025;-74
2022/11/19 08:13:47;;;;;;;25.35;10.63;;;5.40;77.90;;;;;;5038691;28;20033;-74
2022/11/19 08:18:11;;;;;;;29.17;11.20;;;5.40;78.00;;;;;;5038584;28;20029;-74
2022/11/19 08:19:08;;;;;;;22.55;9.95;;;5.40;77.60;;;;;;5055923;28;20033;-73
2022/11/19 08:21:35;;;;;;;22.88;10.02;;;5.40;77.50;;;;;;5056012;28;20068;-74
2022/11/19 08:24:01;;;;;;;22.98;10.63;;;5.40;78.00;;;;;;5054849;28;20089;-73
2022/11/19 08:26:26;;;;;;;25.50;10.55;;;5.40;78.20;;;;;;5054843;28;20093;-74
2022/11/19 08:28:52;;;;;;;30.35;11.98;;;5.40;78.30;;;;;;5055798;28;20033;-74
2022/11/19 08:31:18;;;;;;;26.77;10.88;;;5.40;78.00;;;;;;5055121;28;20029;-74
2022/11/19 08:33:44;;;;;;;21.08;9.40;;;5.40;77.40;;;;;;5055747;28;20030;-74
2022/11/19 08:36:11;;;;;;;25.38;10.88;;;5.40;77.60;;;;;;5055651;28;20026;-74
2022/11/19 08:38:37;;;;;;;25.65;10.43;;;5.50;77.90;;;;;;5055653;28;20072;-74
2022/11/19 08:43:47;;;;;;;24.77;10.25;;;5.50;77.60;;;;;;5055531;28;20049;-74
2022/11/19 08:46:12;;;;;;;27.17;11.05;;;5.50;77.40;;;;;;5055503;28;20089;-74
2022/11/19 08:48:38;;;;;;;22.90;9.70;;;5.50;77.60;;;;;;5037745;28;20068;-74
2022/11/19 08:51:06;;;;;;;25.95;10.15;;;5.50;77.90;;;;;;5055305;28;20034;-74
2022/11/19 08:53:32;;;;;;;23.88;10.05;;;5.50;77.70;;;;;;5054393;28;20041;-74
2022/11/19 08:55:57;;;;;;;27.27;10.63;;;5.50;77.60;;;;;;5055347;28;20052;-74
2022/11/19 08:58:23;;;;;;;27.83;10.73;;;5.50;77.40;;;;;;5054323;28;20026;-74
2022/11/19 09:00:49;;;;;;;24.60;10.13;;;5.50;77.30;;;;;;5055234;28;20041;-74
2022/11/19 09:03:15;;;;;;;22.65;9.70;;;5.50;76.90;;;;;;5055253;28;20060;-74
2022/11/19 09:05:41;;;;;;;25.58;10.57;;;5.50;77.00;;;;;;5055104;28;20071;-74
2022/11/19 09:08:07;;;;;;;21.23;9.77;;;5.50;77.50;;;;;;5037638;28;20049;-73
2022/11/19 09:10:33;;;;;;;23.27;9.32;;;5.50;77.20;;;;;;5055063;28;20076;-74
2022/11/19 09:13:01;;;;;;;26.02;10.23;;;5.50;76.20;;;;;;5055020;28;20049;-74
2022/11/19 09:15:26;;;;;;;21.52;10.68;;;5.50;76.70;;;;;;5054886;28;20495;-74
2022/11/19 09:17:52;;;;;;;21.55;9.18;;;5.50;76.60;;;;;;5054899;28;20029;-74
2022/11/19 09:20:18;;;;;;;23.33;10.68;;;5.50;76.80;;;;;;5055005;28;20030;-74
2022/11/19 09:22:44;;;;;;;21.73;9.35;;;5.50;77.50;;;;;;5053720;28;20029;-74
2022/11/19 09:25:09;;;;;;;26.15;9.70;;;5.50;76.50;;;;;;5054762;28;20025;-74
2022/11/19 09:27:36;;;;;;;21.95;9.15;;;5.50;76.70;;;;;;5054684;28;20022;-74
2022/11/19 09:30:02;;;;;;;22.73;9.68;;;5.50;76.50;;;;;;5037189;28;20025;-74
2022/11/19 09:32:28;;;;;;;26.88;9.95;;;5.50;76.80;;;;;;5037233;28;20041;-74
2022/11/19 09:34:53;;;;;;;22.30;9.45;;;5.40;76.70;;;;;;5037203;28;20085;-74
2022/11/19 09:37:19;;;;;;;24.35;10.43;;;5.50;76.50;;;;;;5054515;28;20047;-74
2022/11/19 09:39:45;;;;;;;25.75;10.15;;;5.40;76.30;;;;;;5037085;28;20036;-74
2022/11/19 09:42:29;;;;;;;21.60;10.68;;;5.40;76.40;;;;;;5036503;28;20539;-74
2022/11/19 09:45:01;;;;;;;23.15;9.10;;;5.40;75.90;;;;;;5054231;28;20018;-74
2022/11/19 09:47:26;;;;;;;19.90;8.90;;;5.40;76.20;;;;;;5036797;28;20036;-74
2022/11/19 09:50:02;;;;;;;21.77;8.75;;;5.40;76.10;;;;;;5054062;28;20046;-74
2022/11/19 09:52:32;;;;;;;22.95;9.52;;;5.40;75.60;;;;;;5054270;28;20029;-74
2022/11/19 09:54:59;;;;;;;19.75;8.57;;;5.30;75.90;;;;;;5054203;28;20045;-74
2022/11/19 09:57:41;;;;;;;21.95;9.10;;;5.30;75.80;;;;;;5054157;28;20026;-74
2022/11/19 10:00:08;;;;;;;17.98;8.48;;;5.30;76.30;;;;;;5054293;28;20029;-74
2022/11/19 10:02:34;;;;;;;20.83;8.23;;;5.30;75.70;;;;;;5053916;28;20022;-74
2022/11/19 10:05:49;;;;;;;24.73;8.93;;;5.20;75.50;;;;;;5131736;27;20425;-74
2022/11/19 10:08:29;;;;;;;18.13;7.80;;;5.30;74.70;;;;;;5131213;28;20032;-75
2022/11/19 10:10:58;;;;;;;21.98;8.45;;;5.20;75.00;;;;;;5131359;28;20046;-74
2022/11/19 10:13:37;;;;;;;22.77;9.27;;;5.20;75.30;;;;;;5131297;28;20024;-74
2022/11/19 10:16:25;;;;;;;20.95;8.65;;;5.20;74.90;;;;;;5131424;28;20016;-74
2022/11/19 10:19:05;;;;;;;21.85;8.00;;;5.10;75.50;;;;;;5131198;28;20042;-74
2022/11/19 10:21:49;;;;;;;18.23;7.43;;;5.10;75.10;;;;;;5131313;28;20028;-74
2022/11/19 10:24:22;;;;;;;13.93;6.90;;;5.10;74.80;;;;;;5131067;28;20075;-74
2022/11/19 10:26:59;;;;;;;19.08;8.52;;;5.00;74.00;;;;;;5131034;28;20027;-74
2022/11/19 10:29:28;;;;;;;16.10;7.32;;;5.00;74.50;;;;;;5131201;28;20069;-75
2022/11/19 10:32:29;;;;;;;20.60;7.53;;;5.00;74.70;;;;;;5130941;28;20024;-74
2022/11/19 10:35:01;;;;;;;14.75;6.50;;;5.00;74.60;;;;;;5130486;28;20032;-74
2022/11/19 10:37:34;;;;;;;15.70;6.47;;;4.90;74.40;;;;;;5130889;28;20032;-74
2022/11/19 10:40:15;;;;;;;15.98;6.88;;;4.90;74.90;;;;;;5130779;28;20020;-75
2022/11/19 10:42:47;;;;;;;18.23;6.88;;;4.90;74.90;;;;;;5129675;28;20020;-74
2022/11/19 10:45:22;;;;;;;17.90;7.13;;;4.90;74.40;;;;;;5130729;28;20020;-74
2022/11/19 10:48:11;;;;;;;14.85;6.80;;;4.90;74.40;;;;;;5130640;28;20031;-75
2022/11/19 10:50:37;;;;;;;18.55;7.43;;;4.80;74.30;;;;;;5130598;28;20020;-74
2022/11/19 10:53:35;;;;;;;16.08;7.15;;;4.80;74.70;;;;;;5129710;28;20083;-74
2022/11/19 10:56:14;;;;;;;16.05;6.78;;;4.80;74.10;;;;;;5130470;28;20023;-74
2022/11/19 10:59:11;;;;;;;16.77;7.22;;;4.80;74.30;;;;;;5130427;28;20024;-74
2022/11/19 11:01:40;;;;;;;14.20;6.18;;;4.80;74.80;;;;;;5130381;28;20039;-74
2022/11/19 11:04:19;;;;;;;16.33;6.50;;;4.80;75.20;;;;;;5129918;28;20051;-75
2022/11/19 11:06:56;;;;;;;15.23;6.80;;;4.90;75.20;;;;;;5130395;28;20020;-74
2022/11/19 11:09:42;;;;;;;14.18;6.93;;;4.90;74.70;;;;;;5130180;28;20050;-74
2022/11/19 11:15:25;;;;;;;13.48;6.25;;;4.90;74.10;;;;;;5125184;28;20042;-75
2022/11/19 11:18:06;;;;;;;16.92;6.70;;;4.80;73.50;;;;;;5116557;28;20044;-74
2022/11/19 11:20:35;;;;;;;15.93;7.13;;;4.80;74.00;;;;;;5116437;28;20030;-74
2022/11/19 11:23:14;;;;;;;15.50;7.50;;;4.80;74.80;;;;;;5115318;28;20028;-74
2022/11/19 11:25:49;;;;;;;15.10;6.82;;;4.80;75.50;;;;;;5116283;28;20024;-75
2022/11/19 11:28:17;;;;;;;14.65;6.68;;;4.80;74.40;;;;;;5115275;28;20027;-75
2022/11/19 11:30:55;;;;;;;18.63;7.30;;;4.90;74.60;;;;;;5116173;28;20024;-74
2022/11/19 11:33:23;;;;;;;15.70;7.05;;;5.00;75.10;;;;;;5116071;28;20024;-74
2022/11/19 11:35:52;;;;;;;14.57;7.10;;;5.10;75.20;;;;;;5116081;28;20028;-74
2022/11/19 11:38:22;;;;;;;14.60;7.07;;;5.10;74.80;;;;;;5116015;28;20024;-74
2022/11/19 11:41:05;;;;;;;13.63;6.30;;;5.10;75.40;;;;;;5115967;28;20024;-74
2022/11/19 11:43:33;;;;;;;13.80;6.32;;;5.10;73.50;;;;;;5115131;28;20024;-74
2022/11/19 11:46:02;;;;;;;15.80;6.85;;;5.10;74.00;;;;;;5115875;28;20024;-74
2022/11/19 11:48:40;;;;;;;13.57;6.25;;;5.10;74.00;;;;;;5115821;28;20107;-74
2022/11/19 11:51:05;;;;;;;13.90;6.22;;;5.10;74.40;;;;;;5115847;28;20027;-74
2022/11/19 11:53:33;;;;;;;15.02;6.78;;;5.20;74.50;;;;;;5114719;28;20024;-74
2022/11/19 11:56:01;;;;;;;14.38;6.32;;;5.20;74.30;;;;;;5115688;28;20020;-74
2022/11/19 11:58:29;;;;;;;11.93;6.45;;;5.30;74.70;;;;;;5115621;28;20028;-74
2022/11/19 12:01:17;;;;;;;13.55;6.35;;;5.40;74.10;;;;;;5115592;28;20024;-75
2022/11/19 12:03:57;;;;;;;14.38;6.57;;;5.30;72.80;;;;;;5114197;28;20043;-75
2022/11/19 12:06:27;;;;;;;14.07;6.18;;;5.40;73.80;;;;;;5115484;28;20039;-74
2022/11/19 12:09:03;;;;;;;14.82;6.80;;;5.40;72.80;;;;;;5114417;28;20020;-74
2022/11/19 12:11:55;;;;;;;12.75;6.43;;;5.40;72.70;;;;;;5115363;28;20485;-75
2022/11/19 12:14:58;;;;;;;17.50;6.57;;;5.40;73.20;;;;;;5115326;28;20027;-74
2022/11/19 12:17:36;;;;;;;16.52;6.55;;;5.50;73.40;;;;;;5114365;28;20032;-74
2022/11/19 12:20:20;;;;;;;12.52;6.15;;;5.40;72.60;;;;;;5114202;28;20024;-74
2022/11/19 12:23:01;;;;;;;16.70;6.70;;;5.40;73.00;;;;;;5115263;28;20024;-74
2022/11/19 12:25:50;;;;;;;15.95;6.75;;;5.40;72.20;;;;;;5115168;28;20028;-74
2022/11/19 12:28:40;;;;;;;13.50;6.47;;;5.40;73.20;;;;;;5076399;28;20038;-74
2022/11/19 12:31:29;;;;;;;13.40;6.03;;;5.50;73.50;;;;;;5115060;28;20024;-74
2022/11/19 12:34:06;;;;;;;13.38;5.85;;;5.40;72.80;;;;;;5102410;28;20032;-75
2022/11/19 12:36:40;;;;;;;13.63;6.00;;;5.50;73.10;;;;;;5114912;28;20024;-74
2022/11/19 12:39:26;;;;;;;13.80;5.90;;;5.50;73.00;;;;;;5115035;28;20149;-74
2022/11/19 12:42:01;;;;;;;14.60;6.35;;;5.40;72.60;;;;;;5114865;28;20016;-74
2022/11/19 12:44:49;;;;;;;11.70;5.75;;;5.50;72.50;;;;;;5114849;28;20083;-75
2022/11/19 12:47:46;;;;;;;11.00;5.43;;;5.50;72.80;;;;;;5114732;28;20032;-74
2022/11/19 12:50:21;;;;;;;12.38;5.80;;;5.50;72.80;;;;;;5113647;28;20057;-74
2022/11/19 12:53:11;;;;;;;12.65;5.80;;;5.60;72.80;;;;;;5114559;28;20024;-74
2022/11/19 12:55:53;;;;;;;11.10;5.57;;;5.60;72.80;;;;;;5114591;28;20072;-74
2022/11/19 12:58:34;;;;;;;12.32;6.20;;;5.60;72.20;;;;;;5114694;28;20075;-74
2022/11/19 13:01:04;;;;;;;12.98;6.43;;;5.60;72.80;;;;;;5114629;28;20079;-74
2022/11/19 13:03:54;;;;;;;10.48;5.15;;;5.70;72.70;;;;;;5114169;28;20024;-75
2022/11/19 13:06:43;;;;;;;12.90;5.53;;;5.70;72.40;;;;;;5114366;28;20079;-74
2022/11/19 13:09:14;;;;;;;11.40;5.35;;;5.70;72.10;;;;;;5102267;28;20058;-74
2022/11/19 13:11:54;;;;;;;12.43;5.82;;;5.70;72.00;;;;;;5114263;28;20024;-74
2022/11/19 13:14:38;;;;;;;11.13;5.32;;;5.70;72.20;;;;;;5114246;28;20033;-74
2022/11/19 13:17:08;;;;;;;12.13;5.35;;;5.70;72.00;;;;;;5114211;28;20051;-74
2022/11/19 13:19:37;;;;;;;12.85;5.28;;;5.70;72.30;;;;;;5114302;28;20024;-74
2022/11/19 13:22:14;;;;;;;11.65;5.35;;;5.70;72.20;;;;;;5114092;28;20084;-74
2022/11/19 13:24:56;;;;;;;13.23;6.18;;;5.70;72.00;;;;;;5114004;28;20564;-74
2022/11/19 13:27:26;;;;;;;11.80;5.80;;;5.70;71.90;;;;;;5114084;28;20024;-72